Time,TemperatureF,DewpointF,PressureIn,WindDirection,WindDirectionDegrees,WindSpeedMPH,WindSpeedGustMPH,Humidity,HourlyPrecipIn,Conditions,Clouds,dailyrainin,SoftwareType,DateUTC
2013-02-07 00:00:00,15.9,11.0,29.44,WSW,247,2.0,4.0,81,0.00,,,0.00,Rainwise IP-100,2013-02-07 05:00:00,
2013-02-07 00:05:00,16.1,11.0,29.44,WSW,247,4.0,4.0,80,0.00,,,0.00,Rainwise IP-100,2013-02-07 05:05:00,
2013-02-07 00:10:00,16.2,11.0,29.44,West,270,3.0,4.0,80,0.00,,,0.00,Rainwise IP-100,2013-02-07 05:10:00,
2013-02-07 00:15:00,16.6,14.0,29.44,West,270,2.0,4.0,79,0.00,,,0.00,Rainwise IP-100,2013-02-07 05:15:00,
2013-02-07 00:20:00,16.3,11.0,29.43,WSW,247,3.0,4.0,80,0.00,,,0.00,Rainwise IP-100,2013-02-07 05:20:00,
2013-02-07 00:25:00,15.9,11.0,29.44,West,270,3.0,4.0,82,0.00,,,0.00,Rainwise IP-100,2013-02-07 05:25:00,
2013-02-07 00:30:00,15.9,11.0,29.44,West,270,2.0,4.0,82,0.00,,,0.00,Rainwise IP-100,2013-02-07 05:30:00,
2013-02-07 00:35:00,15.9,11.0,29.43,West,270,3.0,4.0,82,0.00,,,0.00,Rainwise IP-100,2013-02-07 05:35:00,
2013-02-07 00:40:00,16.3,11.0,29.43,West,270,2.0,4.0,81,0.00,,,0.00,Rainwise IP-100,2013-02-07 05:40:00,
2013-02-07 00:45:00,16.4,11.0,29.41,WNW,292,2.0,3.0,82,0.00,,,0.00,Rainwise IP-100,2013-02-07 05:45:00,
2013-02-07 00:50:00,16.6,14.0,29.41,WNW,292,2.0,4.0,82,0.00,,,0.00,Rainwise IP-100,2013-02-07 05:50:00,
2013-02-07 00:55:00,16.7,14.0,29.41,WNW,292,2.0,3.0,82,0.00,,,0.00,Rainwise IP-100,2013-02-07 05:55:00,
2013-02-07 01:00:00,16.6,14.0,29.42,WNW,292,1.0,2.0,82,0.00,,,0.00,Rainwise IP-100,2013-02-07 06:00:00,
2013-02-07 01:05:00,16.8,14.0,29.42,West,270,2.0,3.0,82,0.00,,,0.00,Rainwise IP-100,2013-02-07 06:05:00,
2013-02-07 01:10:00,16.8,14.0,29.43,WNW,292,2.0,3.0,82,0.00,,,0.00,Rainwise IP-100,2013-02-07 06:10:00,
2013-02-07 01:15:00,16.7,14.0,29.43,WNW,292,1.0,3.0,82,0.00,,,0.00,Rainwise IP-100,2013-02-07 06:15:00,
2013-02-07 01:20:00,16.6,14.0,29.43,WNW,292,2.0,2.0,82,0.00,,,0.00,Rainwise IP-100,2013-02-07 06:20:00,
2013-02-07 01:25:00,16.7,14.0,29.43,West,270,2.0,2.0,82,0.00,,,0.00,Rainwise IP-100,2013-02-07 06:25:00,
2013-02-07 01:30:00,16.9,14.0,29.43,NW,315,2.0,4.0,82,0.00,,,0.00,Rainwise IP-100,2013-02-07 06:30:00,
2013-02-07 01:35:00,17.2,14.0,29.44,NW,315,1.0,4.0,82,0.00,,,0.00,Rainwise IP-100,2013-02-07 06:35:00,
2013-02-07 01:40:00,17.0,14.0,29.45,NW,315,2.0,2.0,82,0.00,,,0.00,Rainwise IP-100,2013-02-07 06:40:00,
2013-02-07 01:45:00,17.1,14.0,29.45,NW,315,2.0,4.0,82,0.00,,,0.00,Rainwise IP-100,2013-02-07 06:45:00,
2013-02-07 01:50:00,17.1,14.0,29.45,NNW,337,1.0,4.0,82,0.00,,,0.00,Rainwise IP-100,2013-02-07 06:50:00,
2013-02-07 01:55:00,17.1,14.0,29.45,NNW,337,2.0,2.0,82,0.00,,,0.00,Rainwise IP-100,2013-02-07 06:55:00,
2013-02-07 02:00:00,17.4,14.0,29.45,North,360,4.0,4.0,79,0.00,,,0.00,Rainwise IP-100,2013-02-07 07:00:00,
2013-02-07 02:05:00,18.1,14.0,29.45,North,360,4.0,6.0,78,0.00,,,0.00,Rainwise IP-100,2013-02-07 07:05:00,
2013-02-07 02:10:00,18.5,14.0,29.46,NE,45,2.0,6.0,72,0.00,,,0.00,Rainwise IP-100,2013-02-07 07:10:00,
2013-02-07 02:15:00,18.8,11.0,29.46,NNE,22,2.0,8.0,68,0.00,,,0.00,Rainwise IP-100,2013-02-07 07:15:00,
2013-02-07 02:20:00,18.8,11.0,29.46,NNE,22,4.0,7.0,68,0.00,,,0.00,Rainwise IP-100,2013-02-07 07:20:00,
2013-02-07 02:25:00,18.9,11.0,29.45,North,360,6.0,8.0,67,0.00,,,0.00,Rainwise IP-100,2013-02-07 07:25:00,
2013-02-07 02:30:00,18.8,11.0,29.45,NE,45,2.0,7.0,66,0.00,,,0.00,Rainwise IP-100,2013-02-07 07:30:00,
2013-02-07 02:35:00,18.6,14.0,29.45,NE,45,4.0,6.0,70,0.00,,,0.00,Rainwise IP-100,2013-02-07 07:35:00,
2013-02-07 02:40:00,18.5,14.0,29.46,NNE,22,4.0,6.0,69,0.00,,,0.00,Rainwise IP-100,2013-02-07 07:40:00,
2013-02-07 02:45:00,18.5,14.0,29.45,NE,45,2.0,6.0,69,0.00,,,0.00,Rainwise IP-100,2013-02-07 07:45:00,
2013-02-07 02:50:00,18.4,11.0,29.45,NE,45,1.0,6.0,70,0.00,,,0.00,Rainwise IP-100,2013-02-07 07:50:00,
2013-02-07 02:55:00,18.3,11.0,29.45,ENE,67,2.0,7.0,71,0.00,,,0.00,Rainwise IP-100,2013-02-07 07:55:00,
2013-02-07 03:00:00,18.3,11.0,29.45,NE,45,0.0,4.0,72,0.00,,,0.00,Rainwise IP-100,2013-02-07 08:00:00,
2013-02-07 03:05:00,18.4,11.0,29.45,NE,45,2.0,6.0,71,0.00,,,0.00,Rainwise IP-100,2013-02-07 08:05:00,
2013-02-07 03:10:00,18.2,11.0,29.45,NE,45,1.0,5.0,71,0.00,,,0.00,Rainwise IP-100,2013-02-07 08:10:00,
2013-02-07 03:15:00,18.2,11.0,29.45,NE,45,1.0,2.0,72,0.00,,,0.00,Rainwise IP-100,2013-02-07 08:15:00,
2013-02-07 03:20:00,18.4,11.0,29.45,NE,45,1.0,2.0,72,0.00,,,0.00,Rainwise IP-100,2013-02-07 08:20:00,
2013-02-07 03:25:00,18.8,14.0,29.45,East,90,2.0,2.0,71,0.00,,,0.00,Rainwise IP-100,2013-02-07 08:25:00,
2013-02-07 03:30:00,19.1,14.0,29.44,East,90,2.0,4.0,72,0.00,,,0.00,Rainwise IP-100,2013-02-07 08:30:00,
2013-02-07 03:35:00,19.1,14.0,29.45,East,90,1.0,4.0,71,0.00,,,0.00,Rainwise IP-100,2013-02-07 08:35:00,
2013-02-07 03:40:00,19.3,14.0,29.45,East,90,3.0,3.0,72,0.00,,,0.00,Rainwise IP-100,2013-02-07 08:40:00,
2013-02-07 03:45:00,19.4,14.0,29.46,ESE,112,1.0,4.0,73,0.00,,,0.00,Rainwise IP-100,2013-02-07 08:45:00,
2013-02-07 03:50:00,19.2,14.0,29.46,SSE,157,3.0,4.0,74,0.00,,,0.00,Rainwise IP-100,2013-02-07 08:50:00,
2013-02-07 03:55:00,19.1,14.0,29.46,SE,135,1.0,3.0,75,0.00,,,0.00,Rainwise IP-100,2013-02-07 08:55:00,
2013-02-07 04:00:00,19.1,14.0,29.46,ESE,112,3.0,3.0,74,0.00,,,0.00,Rainwise IP-100,2013-02-07 09:00:00,
2013-02-07 04:05:00,18.9,14.0,29.46,SE,135,1.0,4.0,76,0.00,,,0.00,Rainwise IP-100,2013-02-07 09:05:00,
2013-02-07 04:10:00,18.8,16.0,29.46,SSE,157,3.0,3.0,78,0.00,,,0.00,Rainwise IP-100,2013-02-07 09:10:00,
2013-02-07 04:15:00,18.7,16.0,29.46,SSE,157,3.0,5.0,79,0.00,,,0.00,Rainwise IP-100,2013-02-07 09:15:00,
2013-02-07 04:20:00,18.6,16.0,29.46,SSE,157,2.0,4.0,79,0.00,,,0.00,Rainwise IP-100,2013-02-07 09:20:00,
2013-02-07 04:25:00,18.5,16.0,29.46,SSE,157,3.0,4.0,81,0.00,,,0.00,Rainwise IP-100,2013-02-07 09:25:00,
2013-02-07 04:30:00,18.5,16.0,29.46,South,180,2.0,4.0,83,0.00,,,0.00,Rainwise IP-100,2013-02-07 09:30:00,
2013-02-07 04:35:00,18.5,16.0,29.47,South,180,2.0,4.0,84,0.00,,,0.00,Rainwise IP-100,2013-02-07 09:35:00,
2013-02-07 04:40:00,18.5,16.0,29.47,South,180,1.0,3.0,83,0.00,,,0.00,Rainwise IP-100,2013-02-07 09:40:00,
2013-02-07 04:45:00,18.4,14.0,29.47,SSW,202,2.0,4.0,83,0.00,,,0.00,Rainwise IP-100,2013-02-07 09:45:00,
2013-02-07 04:50:00,18.3,14.0,29.47,South,180,2.0,3.0,84,0.00,,,0.00,Rainwise IP-100,2013-02-07 09:50:00,
2013-02-07 04:55:00,18.3,14.0,29.47,SSW,202,3.0,5.0,84,0.00,,,0.00,Rainwise IP-100,2013-02-07 09:55:00,
2013-02-07 05:00:00,18.3,16.0,29.48,South,180,2.0,4.0,86,0.00,,,0.00,Rainwise IP-100,2013-02-07 10:00:00,
2013-02-07 05:05:00,18.2,16.0,29.48,South,180,4.0,5.0,86,0.00,,,0.00,Rainwise IP-100,2013-02-07 10:05:00,
2013-02-07 05:10:00,18.1,16.0,29.48,South,180,2.0,5.0,86,0.00,,,0.00,Rainwise IP-100,2013-02-07 10:10:00,
2013-02-07 05:15:00,17.9,16.0,29.48,SSW,202,2.0,4.0,85,0.00,,,0.00,Rainwise IP-100,2013-02-07 10:15:00,
2013-02-07 05:20:00,17.9,16.0,29.48,SSW,202,4.0,4.0,86,0.00,,,0.00,Rainwise IP-100,2013-02-07 10:20:00,
2013-02-07 05:25:00,17.9,16.0,29.48,SW,225,2.0,5.0,86,0.00,,,0.00,Rainwise IP-100,2013-02-07 10:25:00,
2013-02-07 05:30:00,17.9,16.0,29.48,SW,225,1.0,4.0,87,0.00,,,0.00,Rainwise IP-100,2013-02-07 10:30:00,
2013-02-07 05:35:00,17.9,16.0,29.48,SSW,202,1.0,2.0,87,0.00,,,0.00,Rainwise IP-100,2013-02-07 10:35:00,
2013-02-07 05:40:00,17.9,16.0,29.48,SSW,202,1.0,2.0,88,0.00,,,0.00,Rainwise IP-100,2013-02-07 10:40:00,
2013-02-07 05:45:00,17.9,16.0,29.48,SSW,202,2.0,2.0,88,0.00,,,0.00,Rainwise IP-100,2013-02-07 10:45:00,
2013-02-07 05:50:00,17.9,16.0,29.48,SSW,202,2.0,3.0,88,0.00,,,0.00,Rainwise IP-100,2013-02-07 10:50:00,
2013-02-07 05:55:00,17.9,16.0,29.48,SSW,202,1.0,3.0,87,0.00,,,0.00,Rainwise IP-100,2013-02-07 10:55:00,
2013-02-07 06:00:00,17.9,16.0,29.48,South,180,2.0,3.0,87,0.00,,,0.00,Rainwise IP-100,2013-02-07 11:00:00,
2013-02-07 06:05:00,17.9,16.0,29.48,South,180,2.0,4.0,86,0.00,,,0.00,Rainwise IP-100,2013-02-07 11:05:00,
2013-02-07 06:10:00,17.9,16.0,29.47,South,180,2.0,4.0,86,0.00,,,0.00,Rainwise IP-100,2013-02-07 11:10:00,
2013-02-07 06:15:00,17.9,16.0,29.48,South,180,1.0,2.0,85,0.00,,,0.00,Rainwise IP-100,2013-02-07 11:15:00,
2013-02-07 06:20:00,17.9,14.0,29.47,SSE,157,1.0,3.0,84,0.00,,,0.00,Rainwise IP-100,2013-02-07 11:20:00,
2013-02-07 06:25:00,17.9,14.0,29.47,SSE,157,1.0,4.0,83,0.00,,,0.00,Rainwise IP-100,2013-02-07 11:25:00,
2013-02-07 06:30:00,17.9,14.0,29.47,SSE,157,1.0,2.0,83,0.00,,,0.00,Rainwise IP-100,2013-02-07 11:30:00,
2013-02-07 06:35:00,18.0,14.0,29.47,SSE,157,2.0,3.0,82,0.00,,,0.00,Rainwise IP-100,2013-02-07 11:35:00,
2013-02-07 06:40:00,18.1,14.0,29.47,SSE,157,3.0,3.0,83,0.00,,,0.00,Rainwise IP-100,2013-02-07 11:40:00,
2013-02-07 06:45:00,18.1,14.0,29.47,SE,135,2.0,4.0,84,0.00,,,0.00,Rainwise IP-100,2013-02-07 11:45:00,
2013-02-07 06:50:00,18.1,14.0,29.47,SSE,157,3.0,4.0,84,0.00,,,0.00,Rainwise IP-100,2013-02-07 11:50:00,
2013-02-07 06:55:00,18.1,14.0,29.47,SSE,157,4.0,5.0,84,0.00,,,0.00,Rainwise IP-100,2013-02-07 11:55:00,
2013-02-07 07:00:00,18.2,14.0,29.48,SSE,157,4.0,6.0,83,0.00,,,0.00,Rainwise IP-100,2013-02-07 12:00:00,
2013-02-07 07:05:00,18.3,14.0,29.49,SSE,157,2.0,5.0,83,0.00,,,0.00,Rainwise IP-100,2013-02-07 12:05:00,
2013-02-07 07:10:00,18.4,14.0,29.49,SSE,157,4.0,5.0,84,0.00,,,0.00,Rainwise IP-100,2013-02-07 12:10:00,
2013-02-07 07:15:00,18.4,14.0,29.49,SSE,157,4.0,6.0,84,0.00,,,0.00,Rainwise IP-100,2013-02-07 12:15:00,
2013-02-07 07:20:00,18.5,16.0,29.49,SSE,157,2.0,6.0,85,0.00,,,0.00,Rainwise IP-100,2013-02-07 12:20:00,
2013-02-07 07:25:00,18.5,16.0,29.49,SSE,157,4.0,6.0,84,0.00,,,0.00,Rainwise IP-100,2013-02-07 12:25:00,
2013-02-07 07:30:00,18.6,16.0,29.49,SSE,157,4.0,6.0,85,0.00,,,0.00,Rainwise IP-100,2013-02-07 12:30:00,
2013-02-07 07:35:00,18.7,16.0,29.50,SSE,157,3.0,6.0,86,0.00,,,0.00,Rainwise IP-100,2013-02-07 12:35:00,
2013-02-07 07:40:00,18.8,16.0,29.50,SE,135,4.0,7.0,85,0.00,,,0.00,Rainwise IP-100,2013-02-07 12:40:00,
2013-02-07 07:45:00,18.9,16.0,29.50,SE,135,5.0,7.0,86,0.00,,,0.00,Rainwise IP-100,2013-02-07 12:45:00,
2013-02-07 07:50:00,18.9,16.0,29.50,SSE,157,4.0,7.0,85,0.00,,,0.00,Rainwise IP-100,2013-02-07 12:50:00,
2013-02-07 07:55:00,19.0,16.0,29.50,SE,135,6.0,7.0,84,0.00,,,0.00,Rainwise IP-100,2013-02-07 12:55:00,
2013-02-07 08:00:00,19.1,16.0,29.50,SE,135,4.0,7.0,84,0.00,,,0.00,Rainwise IP-100,2013-02-07 13:00:00,
2013-02-07 08:05:00,19.2,16.0,29.50,SSE,157,6.0,7.0,85,0.00,,,0.00,Rainwise IP-100,2013-02-07 13:05:00,
2013-02-07 08:10:00,19.3,16.0,29.50,SSE,157,5.0,7.0,86,0.00,,,0.00,Rainwise IP-100,2013-02-07 13:10:00,
2013-02-07 08:15:00,19.5,16.0,29.51,SE,135,5.0,7.0,85,0.00,,,0.00,Rainwise IP-100,2013-02-07 13:15:00,
2013-02-07 08:20:00,19.6,16.0,29.51,SSE,157,4.0,7.0,84,0.00,,,0.00,Rainwise IP-100,2013-02-07 13:20:00,
2013-02-07 08:25:00,19.7,16.0,29.51,SSE,157,7.0,7.0,85,0.00,,,0.00,Rainwise IP-100,2013-02-07 13:25:00,
2013-02-07 08:30:00,19.8,16.0,29.51,SSE,157,5.0,7.0,84,0.00,,,0.00,Rainwise IP-100,2013-02-07 13:30:00,
2013-02-07 08:35:00,19.9,16.0,29.51,SE,135,6.0,9.0,82,0.00,,,0.00,Rainwise IP-100,2013-02-07 13:35:00,
2013-02-07 08:40:00,19.9,16.0,29.52,SSE,157,4.0,9.0,82,0.00,,,0.00,Rainwise IP-100,2013-02-07 13:40:00,
2013-02-07 08:45:00,20.0,16.0,29.52,SSE,157,5.0,9.0,81,0.00,,,0.00,Rainwise IP-100,2013-02-07 13:45:00,
2013-02-07 08:50:00,20.0,16.0,29.52,SE,135,5.0,7.0,80,0.00,,,0.00,Rainwise IP-100,2013-02-07 13:50:00,
2013-02-07 08:55:00,20.2,16.0,29.52,SSE,157,6.0,8.0,79,0.00,,,0.00,Rainwise IP-100,2013-02-07 13:55:00,
2013-02-07 09:00:00,20.3,16.0,29.51,SE,135,3.0,7.0,78,0.00,,,0.00,Rainwise IP-100,2013-02-07 14:00:00,
2013-02-07 09:05:00,20.6,16.0,29.52,SSE,157,7.0,7.0,78,0.00,,,0.00,Rainwise IP-100,2013-02-07 14:05:00,
2013-02-07 09:10:00,20.7,16.0,29.52,SSE,157,6.0,9.0,78,0.00,,,0.00,Rainwise IP-100,2013-02-07 14:10:00,
2013-02-07 09:15:00,20.9,14.0,29.52,SSE,157,4.0,7.0,77,0.00,,,0.00,Rainwise IP-100,2013-02-07 14:15:00,
2013-02-07 09:20:00,21.0,16.0,29.52,SE,135,4.0,7.0,78,0.00,,,0.00,Rainwise IP-100,2013-02-07 14:20:00,
2013-02-07 09:25:00,21.2,16.0,29.52,SE,135,6.0,7.0,78,0.00,,,0.00,Rainwise IP-100,2013-02-07 14:25:00,
2013-02-07 09:30:00,21.5,16.0,29.52,SSE,157,6.0,7.0,78,0.00,,,0.00,Rainwise IP-100,2013-02-07 14:30:00,
2013-02-07 09:35:00,21.7,16.0,29.51,SE,135,5.0,9.0,77,0.00,,,0.00,Rainwise IP-100,2013-02-07 14:35:00,
2013-02-07 09:40:00,21.5,16.0,29.50,SE,135,4.0,7.0,77,0.00,,,0.00,Rainwise IP-100,2013-02-07 14:40:00,
2013-02-07 09:44:00,21.7,16.0,29.50,ESE,112,1.0,5.0,77,0.00,,,0.00,Rainwise IP-100,2013-02-07 14:44:00,
2013-02-07 09:45:00,21.7,16.0,29.50,ESE,112,1.0,5.0,77,0.00,,,0.00,Rainwise IP-100,2013-02-07 14:45:00,
2013-02-07 09:46:00,21.8,16.0,29.50,ESE,112,1.0,5.0,77,0.00,,,0.00,Rainwise IP-100,2013-02-07 14:46:00,
2013-02-07 09:51:00,21.9,16.0,29.50,SE,135,2.0,6.0,76,0.00,,,0.00,Rainwise IP-100,2013-02-07 14:51:00,
2013-02-07 09:56:00,22.3,16.0,29.50,SSE,157,2.0,7.0,75,0.00,,,0.00,Rainwise IP-100,2013-02-07 14:56:00,
2013-02-07 10:01:00,22.7,16.0,29.50,ESE,112,2.0,6.0,74,0.00,,,0.00,Rainwise IP-100,2013-02-07 15:01:00,
2013-02-07 10:06:00,23.1,16.0,29.50,ESE,112,2.0,6.0,72,0.00,,,0.00,Rainwise IP-100,2013-02-07 15:06:00,
2013-02-07 10:11:00,23.8,16.0,29.50,ESE,112,4.0,8.0,73,0.00,,,0.00,Rainwise IP-100,2013-02-07 15:11:00,
2013-02-07 10:16:00,23.5,16.0,29.50,SE,135,3.0,6.0,69,0.00,,,0.00,Rainwise IP-100,2013-02-07 15:16:00,
2013-02-07 10:21:00,23.6,16.0,29.50,East,90,2.0,8.0,69,0.00,,,0.00,Rainwise IP-100,2013-02-07 15:21:00,
2013-02-07 10:26:00,23.6,16.0,29.50,ESE,112,2.0,6.0,68,0.00,,,0.00,Rainwise IP-100,2013-02-07 15:26:00,
2013-02-07 10:31:00,23.7,16.0,29.50,East,90,3.0,5.0,68,0.00,,,0.00,Rainwise IP-100,2013-02-07 15:31:00,
2013-02-07 10:36:00,23.9,16.0,29.50,ESE,112,4.0,6.0,66,0.00,,,0.00,Rainwise IP-100,2013-02-07 15:36:00,
2013-02-07 10:41:00,24.1,16.0,29.50,ESE,112,1.0,6.0,67,0.00,,,0.00,Rainwise IP-100,2013-02-07 15:41:00,
2013-02-07 10:46:00,24.8,18.0,29.50,SE,135,4.0,7.0,68,0.00,,,0.00,Rainwise IP-100,2013-02-07 15:46:00,
2013-02-07 10:51:00,24.4,14.0,29.50,ENE,67,1.0,7.0,65,0.00,,,0.00,Rainwise IP-100,2013-02-07 15:51:00,
2013-02-07 10:56:00,24.5,16.0,29.49,ESE,112,1.0,6.0,66,0.00,,,0.00,Rainwise IP-100,2013-02-07 15:56:00,
2013-02-07 11:01:00,24.9,18.0,29.50,ESE,112,2.0,6.0,69,0.00,,,0.00,Rainwise IP-100,2013-02-07 16:01:00,
2013-02-07 11:06:00,24.9,16.0,29.49,East,90,3.0,5.0,66,0.00,,,0.00,Rainwise IP-100,2013-02-07 16:06:00,
2013-02-07 11:11:00,25.4,16.0,29.49,SSE,157,4.0,6.0,65,0.00,,,0.00,Rainwise IP-100,2013-02-07 16:11:00,
2013-02-07 11:16:00,25.3,16.0,29.49,ESE,112,4.0,6.0,65,0.00,,,0.00,Rainwise IP-100,2013-02-07 16:16:00,
2013-02-07 11:21:00,25.4,16.0,29.49,East,90,2.0,6.0,65,0.00,,,0.00,Rainwise IP-100,2013-02-07 16:21:00,
2013-02-07 11:26:00,25.9,16.0,29.48,SE,135,2.0,6.0,64,0.00,,,0.00,Rainwise IP-100,2013-02-07 16:26:00,
2013-02-07 11:31:00,25.9,16.0,29.48,ESE,112,4.0,7.0,65,0.00,,,0.00,Rainwise IP-100,2013-02-07 16:31:00,
2013-02-07 11:36:00,25.9,16.0,29.48,SE,135,4.0,6.0,65,0.00,,,0.00,Rainwise IP-100,2013-02-07 16:36:00,
2013-02-07 11:41:00,25.9,16.0,29.48,East,90,1.0,6.0,67,0.00,,,0.00,Rainwise IP-100,2013-02-07 16:41:00,
2013-02-07 11:46:00,25.8,16.0,29.48,ESE,112,2.0,7.0,66,0.00,,,0.00,Rainwise IP-100,2013-02-07 16:46:00,
2013-02-07 11:51:00,26.3,16.0,29.47,East,90,2.0,6.0,65,0.00,,,0.00,Rainwise IP-100,2013-02-07 16:51:00,
2013-02-07 11:56:00,26.9,18.0,29.45,East,90,4.0,7.0,65,0.00,,,0.00,Rainwise IP-100,2013-02-07 16:56:00,
2013-02-07 12:01:00,26.6,16.0,29.45,East,90,2.0,7.0,62,0.00,,,0.00,Rainwise IP-100,2013-02-07 17:01:00,
2013-02-07 12:06:00,26.9,16.0,29.45,East,90,1.0,5.0,63,0.00,,,0.00,Rainwise IP-100,2013-02-07 17:06:00,
2013-02-07 12:11:00,26.9,16.0,29.45,SE,135,4.0,7.0,63,0.00,,,0.00,Rainwise IP-100,2013-02-07 17:11:00,
2013-02-07 12:16:00,27.3,16.0,29.44,East,90,1.0,5.0,62,0.00,,,0.00,Rainwise IP-100,2013-02-07 17:16:00,
2013-02-07 12:21:00,27.4,16.0,29.44,ESE,112,4.0,7.0,59,0.00,,,0.00,Rainwise IP-100,2013-02-07 17:21:00,
2013-02-07 12:26:00,27.6,16.0,29.44,ENE,67,4.0,5.0,61,0.00,,,0.00,Rainwise IP-100,2013-02-07 17:26:00,
2013-02-07 12:31:00,27.6,16.0,29.43,East,90,2.0,6.0,61,0.00,,,0.00,Rainwise IP-100,2013-02-07 17:31:00,
2013-02-07 12:36:00,27.8,16.0,29.43,East,90,2.0,6.0,62,0.00,,,0.00,Rainwise IP-100,2013-02-07 17:36:00,
2013-02-07 12:41:00,27.8,16.0,29.43,ESE,112,4.0,9.0,61,0.00,,,0.00,Rainwise IP-100,2013-02-07 17:41:00,
2013-02-07 12:46:00,27.8,16.0,29.43,SE,135,2.0,7.0,61,0.00,,,0.00,Rainwise IP-100,2013-02-07 17:46:00,
2013-02-07 12:51:00,27.9,16.0,29.42,ESE,112,6.0,6.0,62,0.00,,,0.00,Rainwise IP-100,2013-02-07 17:51:00,
2013-02-07 12:56:00,27.9,16.0,29.42,East,90,4.0,7.0,61,0.00,,,0.00,Rainwise IP-100,2013-02-07 17:56:00,
2013-02-07 13:01:00,27.8,16.0,29.42,ESE,112,4.0,6.0,60,0.00,,,0.00,Rainwise IP-100,2013-02-07 18:01:00,
2013-02-07 13:06:00,27.8,16.0,29.41,ESE,112,2.0,7.0,61,0.00,,,0.00,Rainwise IP-100,2013-02-07 18:06:00,
2013-02-07 13:11:00,28.4,16.0,29.41,East,90,4.0,6.0,62,0.00,,,0.00,Rainwise IP-100,2013-02-07 18:11:00,
2013-02-07 13:16:00,28.8,18.0,29.41,East,90,4.0,5.0,62,0.00,,,0.00,Rainwise IP-100,2013-02-07 18:16:00,
2013-02-07 13:21:00,28.8,18.0,29.41,East,90,2.0,6.0,62,0.00,,,0.00,Rainwise IP-100,2013-02-07 18:21:00,
2013-02-07 13:26:00,29.2,16.0,29.40,East,90,2.0,6.0,59,0.00,,,0.00,Rainwise IP-100,2013-02-07 18:26:00,
2013-02-07 13:31:00,28.9,18.0,29.40,East,90,2.0,5.0,61,0.00,,,0.00,Rainwise IP-100,2013-02-07 18:31:00,
2013-02-07 13:36:00,29.4,18.0,29.40,ESE,112,6.0,7.0,61,0.00,,,0.00,Rainwise IP-100,2013-02-07 18:36:00,
2013-02-07 13:41:00,29.2,18.0,29.40,ESE,112,3.0,7.0,60,0.00,,,0.00,Rainwise IP-100,2013-02-07 18:41:00,
2013-02-07 13:46:00,29.6,18.0,29.39,ESE,112,1.0,4.0,59,0.00,,,0.00,Rainwise IP-100,2013-02-07 18:46:00,
2013-02-07 13:51:00,29.5,18.0,29.39,East,90,2.0,5.0,60,0.00,,,0.00,Rainwise IP-100,2013-02-07 18:51:00,
2013-02-07 13:56:00,29.8,18.0,29.39,ESE,112,2.0,4.0,61,0.00,,,0.00,Rainwise IP-100,2013-02-07 18:56:00,
2013-02-07 14:01:00,29.8,18.0,29.39,East,90,2.0,4.0,59,0.00,,,0.00,Rainwise IP-100,2013-02-07 19:01:00,
2013-02-07 14:06:00,29.9,18.0,29.39,East,90,1.0,4.0,60,0.00,,,0.00,Rainwise IP-100,2013-02-07 19:06:00,
2013-02-07 14:11:00,30.2,18.0,29.39,SE,135,1.0,6.0,59,0.00,,,0.00,Rainwise IP-100,2013-02-07 19:11:00,
2013-02-07 14:16:00,30.6,18.0,29.38,ESE,112,2.0,4.0,58,0.00,,,0.00,Rainwise IP-100,2013-02-07 19:16:00,
2013-02-07 14:21:00,30.9,18.0,29.38,ESE,112,2.0,5.0,59,0.00,,,0.00,Rainwise IP-100,2013-02-07 19:21:00,
2013-02-07 14:26:00,31.1,18.0,29.38,East,90,1.0,5.0,60,0.00,,,0.00,Rainwise IP-100,2013-02-07 19:26:00,
2013-02-07 14:31:00,31.5,21.0,29.37,ESE,112,2.0,4.0,59,0.00,,,0.00,Rainwise IP-100,2013-02-07 19:31:00,
2013-02-07 14:36:00,31.5,21.0,29.37,East,90,3.0,4.0,59,0.00,,,0.00,Rainwise IP-100,2013-02-07 19:36:00,
2013-02-07 14:41:00,31.3,18.0,29.37,SE,135,1.0,4.0,58,0.00,,,0.00,Rainwise IP-100,2013-02-07 19:41:00,
2013-02-07 14:46:00,31.5,21.0,29.36,East,90,1.0,6.0,59,0.00,,,0.00,Rainwise IP-100,2013-02-07 19:46:00,
2013-02-07 14:51:00,31.8,18.0,29.37,ESE,112,2.0,7.0,58,0.00,,,0.00,Rainwise IP-100,2013-02-07 19:51:00,
2013-02-07 14:56:00,32.1,21.0,29.36,East,90,2.0,6.0,59,0.00,,,0.00,Rainwise IP-100,2013-02-07 19:56:00,
2013-02-07 15:01:00,32.3,21.0,29.36,East,90,2.0,5.0,59,0.00,,,0.00,Rainwise IP-100,2013-02-07 20:01:00,
2013-02-07 15:06:00,32.7,21.0,29.36,ESE,112,3.0,6.0,58,0.00,,,0.00,Rainwise IP-100,2013-02-07 20:06:00,
2013-02-07 15:11:00,32.7,21.0,29.36,SE,135,4.0,7.0,57,0.00,,,0.00,Rainwise IP-100,2013-02-07 20:11:00,
2013-02-07 15:16:00,32.8,21.0,29.35,ESE,112,2.0,6.0,58,0.00,,,0.00,Rainwise IP-100,2013-02-07 20:16:00,
2013-02-07 15:21:00,32.8,21.0,29.35,ESE,112,4.0,5.0,57,0.00,,,0.00,Rainwise IP-100,2013-02-07 20:21:00,
2013-02-07 15:26:00,33.0,21.0,29.35,East,90,4.0,4.0,57,0.00,,,0.00,Rainwise IP-100,2013-02-07 20:26:00,
2013-02-07 15:31:00,32.7,21.0,29.35,ESE,112,2.0,6.0,58,0.00,,,0.00,Rainwise IP-100,2013-02-07 20:31:00,
2013-02-07 15:36:00,32.3,18.0,29.35,East,90,2.0,4.0,58,0.00,,,0.00,Rainwise IP-100,2013-02-07 20:36:00,
2013-02-07 15:41:00,32.2,21.0,29.34,SSE,157,0.0,5.0,59,0.00,,,0.00,Rainwise IP-100,2013-02-07 20:41:00,
2013-02-07 15:46:00,32.1,21.0,29.34,East,90,2.0,3.0,60,0.00,,,0.00,Rainwise IP-100,2013-02-07 20:46:00,
2013-02-07 15:51:00,32.3,18.0,29.34,ESE,112,1.0,4.0,58,0.00,,,0.00,Rainwise IP-100,2013-02-07 20:51:00,
2013-02-07 15:56:00,32.5,21.0,29.34,East,90,1.0,3.0,59,0.00,,,0.00,Rainwise IP-100,2013-02-07 20:56:00,
2013-02-07 16:01:00,32.6,21.0,29.34,ESE,112,4.0,4.0,58,0.00,,,0.00,Rainwise IP-100,2013-02-07 21:01:00,
2013-02-07 16:06:00,32.8,21.0,29.34,ESE,112,2.0,5.0,58,0.00,,,0.00,Rainwise IP-100,2013-02-07 21:06:00,
2013-02-07 16:11:00,32.9,21.0,29.34,ESE,112,4.0,6.0,60,0.00,,,0.00,Rainwise IP-100,2013-02-07 21:11:00,
2013-02-07 16:16:00,32.9,21.0,29.34,SE,135,5.0,7.0,59,0.00,,,0.00,Rainwise IP-100,2013-02-07 21:16:00,
2013-02-07 16:21:00,32.9,21.0,29.34,East,90,2.0,7.0,60,0.00,,,0.00,Rainwise IP-100,2013-02-07 21:21:00,
2013-02-07 16:26:00,32.7,21.0,29.34,ESE,112,4.0,4.0,59,0.00,,,0.00,Rainwise IP-100,2013-02-07 21:26:00,
2013-02-07 16:31:00,32.7,21.0,29.33,ESE,112,2.0,6.0,59,0.00,,,0.00,Rainwise IP-100,2013-02-07 21:31:00,
2013-02-07 16:36:00,32.7,21.0,29.33,East,90,2.0,5.0,60,0.00,,,0.00,Rainwise IP-100,2013-02-07 21:36:00,
2013-02-07 16:41:00,32.8,23.0,29.33,ESE,112,1.0,4.0,62,0.00,,,0.00,Rainwise IP-100,2013-02-07 21:41:00,
2013-02-07 16:46:00,32.7,23.0,29.33,East,90,1.0,3.0,61,0.00,,,0.00,Rainwise IP-100,2013-02-07 21:46:00,
2013-02-07 16:51:00,32.7,23.0,29.33,ESE,112,2.0,2.0,62,0.00,,,0.00,Rainwise IP-100,2013-02-07 21:51:00,
2013-02-07 16:56:00,32.7,23.0,29.33,ESE,112,2.0,6.0,61,0.00,,,0.00,Rainwise IP-100,2013-02-07 21:56:00,
2013-02-07 17:01:00,32.7,23.0,29.33,ESE,112,1.0,6.0,61,0.00,,,0.00,Rainwise IP-100,2013-02-07 22:01:00,
2013-02-07 17:06:00,32.7,23.0,29.33,East,90,2.0,7.0,61,0.00,,,0.00,Rainwise IP-100,2013-02-07 22:06:00,
2013-02-07 17:11:00,32.8,23.0,29.33,ESE,112,2.0,5.0,63,0.00,,,0.00,Rainwise IP-100,2013-02-07 22:11:00,
2013-02-07 17:16:00,32.7,23.0,29.33,ESE,112,2.0,4.0,63,0.00,,,0.00,Rainwise IP-100,2013-02-07 22:16:00,
2013-02-07 17:21:00,32.6,23.0,29.33,ESE,112,2.0,3.0,63,0.00,,,0.00,Rainwise IP-100,2013-02-07 22:21:00,
2013-02-07 17:26:00,32.5,23.0,29.33,ESE,112,2.0,4.0,63,0.00,,,0.00,Rainwise IP-100,2013-02-07 22:26:00,
2013-02-07 17:31:00,32.5,23.0,29.33,ESE,112,2.0,6.0,65,0.00,,,0.00,Rainwise IP-100,2013-02-07 22:31:00,
2013-02-07 17:36:00,32.6,23.0,29.33,ESE,112,3.0,6.0,65,0.00,,,0.00,Rainwise IP-100,2013-02-07 22:36:00,
2013-02-07 17:41:00,32.7,23.0,29.33,SE,135,3.0,4.0,65,0.00,,,0.00,Rainwise IP-100,2013-02-07 22:41:00,
2013-02-07 17:46:00,32.7,23.0,29.33,ESE,112,1.0,4.0,65,0.00,,,0.00,Rainwise IP-100,2013-02-07 22:46:00,
2013-02-07 17:51:00,32.8,23.0,29.33,ESE,112,4.0,7.0,65,0.00,,,0.00,Rainwise IP-100,2013-02-07 22:51:00,
2013-02-07 17:56:00,32.7,24.0,29.33,SE,135,2.0,6.0,66,0.00,,,0.00,Rainwise IP-100,2013-02-07 22:56:00,
2013-02-07 18:01:00,33.1,21.0,29.33,SE,135,6.0,7.0,60,0.00,,,0.00,Rainwise IP-100,2013-02-07 23:01:00,
2013-02-07 18:06:00,33.5,23.0,29.33,SE,135,7.0,9.0,59,0.00,,,0.00,Rainwise IP-100,2013-02-07 23:06:00,
2013-02-07 18:11:00,33.7,21.0,29.33,SE,135,8.0,17.0,57,0.00,,,0.00,Rainwise IP-100,2013-02-07 23:11:00,
2013-02-07 18:16:00,33.8,23.0,29.33,SE,135,9.0,14.0,58,0.00,,,0.00,Rainwise IP-100,2013-02-07 23:16:00,
2013-02-07 18:21:00,33.8,23.0,29.33,SSE,157,14.0,14.0,58,0.00,,,0.00,Rainwise IP-100,2013-02-07 23:21:00,
2013-02-07 18:26:00,33.9,21.0,29.33,SE,135,8.0,16.0,57,0.00,,,0.00,Rainwise IP-100,2013-02-07 23:26:00,
2013-02-07 18:31:00,33.7,21.0,29.33,SSE,157,6.0,12.0,57,0.00,,,0.00,Rainwise IP-100,2013-02-07 23:31:00,
2013-02-07 18:36:00,33.6,21.0,29.33,ESE,112,6.0,11.0,57,0.00,,,0.00,Rainwise IP-100,2013-02-07 23:36:00,
2013-02-07 18:41:00,33.6,21.0,29.33,SE,135,12.0,12.0,57,0.00,,,0.00,Rainwise IP-100,2013-02-07 23:41:00,
2013-02-07 18:46:00,33.5,23.0,29.32,SE,135,6.0,14.0,59,0.00,,,0.00,Rainwise IP-100,2013-02-07 23:46:00,
2013-02-07 18:51:00,33.3,21.0,29.33,SSE,157,8.0,13.0,59,0.00,,,0.00,Rainwise IP-100,2013-02-07 23:51:00,
2013-02-07 18:56:00,33.3,21.0,29.33,SSE,157,6.0,12.0,59,0.00,,,0.00,Rainwise IP-100,2013-02-07 23:56:00,
2013-02-07 19:01:00,33.2,21.0,29.32,SE,135,6.0,8.0,60,0.00,,,0.00,Rainwise IP-100,2013-02-08 00:01:00,
2013-02-07 19:06:00,33.2,21.0,29.32,SE,135,2.0,7.0,60,0.00,,,0.00,Rainwise IP-100,2013-02-08 00:06:00,
2013-02-07 19:11:00,33.3,21.0,29.32,SE,135,6.0,10.0,58,0.00,,,0.00,Rainwise IP-100,2013-02-08 00:11:00,
2013-02-07 19:16:00,33.3,21.0,29.32,SE,135,5.0,11.0,59,0.00,,,0.00,Rainwise IP-100,2013-02-08 00:16:00,
2013-02-07 19:21:00,33.3,21.0,29.32,SE,135,6.0,7.0,58,0.00,,,0.00,Rainwise IP-100,2013-02-08 00:21:00,
2013-02-07 19:26:00,33.3,21.0,29.32,SE,135,7.0,10.0,58,0.00,,,0.00,Rainwise IP-100,2013-02-08 00:26:00,
2013-02-07 19:31:00,33.3,21.0,29.32,SE,135,5.0,9.0,59,0.00,,,0.00,Rainwise IP-100,2013-02-08 00:31:00,
2013-02-07 19:36:00,33.2,21.0,29.32,SE,135,11.0,11.0,58,0.00,,,0.00,Rainwise IP-100,2013-02-08 00:36:00,
2013-02-07 19:41:00,33.2,21.0,29.31,SSE,157,4.0,12.0,60,0.00,,,0.00,Rainwise IP-100,2013-02-08 00:41:00,
2013-02-07 19:46:00,33.1,21.0,29.31,SE,135,7.0,14.0,59,0.00,,,0.00,Rainwise IP-100,2013-02-08 00:46:00,
2013-02-07 19:51:00,33.1,21.0,29.31,SE,135,3.0,11.0,60,0.00,,,0.00,Rainwise IP-100,2013-02-08 00:51:00,
2013-02-07 19:56:00,33.1,21.0,29.31,SE,135,5.0,9.0,59,0.00,,,0.00,Rainwise IP-100,2013-02-08 00:56:00,
2013-02-07 20:01:00,33.0,23.0,29.31,SE,135,6.0,10.0,61,0.00,,,0.00,Rainwise IP-100,2013-02-08 01:01:00,
2013-02-07 20:06:00,33.0,21.0,29.31,SSE,157,6.0,10.0,60,0.00,,,0.00,Rainwise IP-100,2013-02-08 01:06:00,
2013-02-07 20:11:00,33.0,21.0,29.30,SE,135,6.0,11.0,60,0.00,,,0.00,Rainwise IP-100,2013-02-08 01:11:00,
2013-02-07 20:16:00,33.0,23.0,29.30,SSE,157,6.0,11.0,61,0.00,,,0.00,Rainwise IP-100,2013-02-08 01:16:00,
2013-02-07 20:21:00,33.1,21.0,29.30,SE,135,7.0,16.0,60,0.00,,,0.00,Rainwise IP-100,2013-02-08 01:21:00,
2013-02-07 20:26:00,33.1,23.0,29.30,SE,135,7.0,12.0,61,0.00,,,0.00,Rainwise IP-100,2013-02-08 01:26:00,
2013-02-07 20:31:00,33.2,21.0,29.30,SE,135,6.0,14.0,60,0.00,,,0.00,Rainwise IP-100,2013-02-08 01:31:00,
2013-02-07 20:36:00,33.1,23.0,29.30,SE,135,10.0,12.0,61,0.00,,,0.00,Rainwise IP-100,2013-02-08 01:36:00,
2013-02-07 20:41:00,33.1,23.0,29.29,SE,135,7.0,11.0,61,0.00,,,0.00,Rainwise IP-100,2013-02-08 01:41:00,
2013-02-07 20:46:00,33.1,23.0,29.30,SE,135,12.0,13.0,62,0.00,,,0.00,Rainwise IP-100,2013-02-08 01:46:00,
2013-02-07 20:51:00,33.0,23.0,29.29,SE,135,7.0,14.0,61,0.00,,,0.00,Rainwise IP-100,2013-02-08 01:51:00,
2013-02-07 20:56:00,32.9,23.0,29.30,SSE,157,7.0,16.0,61,0.00,,,0.00,Rainwise IP-100,2013-02-08 01:56:00,
2013-02-07 21:01:00,32.9,23.0,29.29,SE,135,12.0,13.0,61,0.00,,,0.00,Rainwise IP-100,2013-02-08 02:01:00,
2013-02-07 21:06:00,32.9,23.0,29.29,SE,135,7.0,13.0,62,0.00,,,0.00,Rainwise IP-100,2013-02-08 02:06:00,
2013-02-07 21:11:00,32.9,23.0,29.29,SE,135,14.0,14.0,61,0.00,,,0.00,Rainwise IP-100,2013-02-08 02:11:00,
2013-02-07 21:16:00,32.9,23.0,29.29,SE,135,7.0,21.0,62,0.00,,,0.00,Rainwise IP-100,2013-02-08 02:16:00,
2013-02-07 21:21:00,32.9,21.0,29.29,SE,135,11.0,14.0,60,0.00,,,0.00,Rainwise IP-100,2013-02-08 02:21:00,
2013-02-07 21:26:00,32.9,21.0,29.29,SE,135,12.0,21.0,59,0.00,,,0.00,Rainwise IP-100,2013-02-08 02:26:00,
2013-02-07 21:31:00,32.9,21.0,29.29,SE,135,13.0,17.0,58,0.00,,,0.00,Rainwise IP-100,2013-02-08 02:31:00,
2013-02-07 21:36:00,32.9,21.0,29.28,SE,135,12.0,21.0,58,0.00,,,0.00,Rainwise IP-100,2013-02-08 02:36:00,
2013-02-07 21:41:00,32.8,21.0,29.28,SE,135,13.0,17.0,60,0.00,,,0.00,Rainwise IP-100,2013-02-08 02:41:00,
2013-02-07 21:46:00,32.8,21.0,29.27,SSE,157,12.0,18.0,59,0.00,,,0.00,Rainwise IP-100,2013-02-08 02:46:00,
2013-02-07 21:51:00,32.7,21.0,29.27,SE,135,11.0,16.0,60,0.00,,,0.00,Rainwise IP-100,2013-02-08 02:51:00,
2013-02-07 21:56:00,32.7,21.0,29.27,SSE,157,8.0,16.0,60,0.00,,,0.00,Rainwise IP-100,2013-02-08 02:56:00,
2013-02-07 22:01:00,32.6,21.0,29.27,SSE,157,11.0,16.0,60,0.00,,,0.00,Rainwise IP-100,2013-02-08 03:01:00,
2013-02-07 22:06:00,32.5,21.0,29.26,ESE,112,9.0,16.0,60,0.00,,,0.00,Rainwise IP-100,2013-02-08 03:06:00,
2013-02-07 22:11:00,32.4,21.0,29.27,SSE,157,10.0,15.0,60,0.00,,,0.00,Rainwise IP-100,2013-02-08 03:11:00,
2013-02-07 22:16:00,32.3,21.0,29.27,SSE,157,10.0,17.0,60,0.00,,,0.00,Rainwise IP-100,2013-02-08 03:16:00,
2013-02-07 22:21:00,32.2,21.0,29.26,SE,135,9.0,20.0,59,0.00,,,0.00,Rainwise IP-100,2013-02-08 03:21:00,
2013-02-07 22:26:00,32.2,21.0,29.25,SE,135,9.0,21.0,60,0.00,,,0.00,Rainwise IP-100,2013-02-08 03:26:00,
2013-02-07 22:31:00,32.1,21.0,29.25,SE,135,11.0,19.0,60,0.00,,,0.00,Rainwise IP-100,2013-02-08 03:31:00,
2013-02-07 22:36:00,31.9,21.0,29.25,SE,135,9.0,22.0,60,0.00,,,0.00,Rainwise IP-100,2013-02-08 03:36:00,
2013-02-07 22:41:00,31.9,21.0,29.24,SSE,157,9.0,18.0,62,0.00,,,0.00,Rainwise IP-100,2013-02-08 03:41:00,
2013-02-07 22:46:00,31.9,21.0,29.24,SE,135,9.0,18.0,61,0.00,,,0.00,Rainwise IP-100,2013-02-08 03:46:00,
2013-02-07 22:51:00,31.9,21.0,29.23,SE,135,10.0,18.0,61,0.00,,,0.00,Rainwise IP-100,2013-02-08 03:51:00,
2013-02-07 22:56:00,31.9,21.0,29.23,SE,135,8.0,17.0,61,0.00,,,0.00,Rainwise IP-100,2013-02-08 03:56:00,
2013-02-07 23:01:00,31.9,21.0,29.23,SE,135,8.0,18.0,62,0.00,,,0.00,Rainwise IP-100,2013-02-08 04:01:00,
2013-02-07 23:06:00,31.9,21.0,29.22,SE,135,11.0,18.0,60,0.00,,,0.00,Rainwise IP-100,2013-02-08 04:06:00,
2013-02-07 23:11:00,31.9,21.0,29.22,ESE,112,11.0,18.0,61,0.00,,,0.00,Rainwise IP-100,2013-02-08 04:11:00,
2013-02-07 23:16:00,31.9,21.0,29.22,SSE,157,11.0,20.0,60,0.00,,,0.00,Rainwise IP-100,2013-02-08 04:16:00,
2013-02-07 23:21:00,31.9,21.0,29.21,SE,135,11.0,23.0,60,0.00,,,0.00,Rainwise IP-100,2013-02-08 04:21:00,
2013-02-07 23:26:00,31.9,21.0,29.21,SSE,157,11.0,20.0,60,0.00,,,0.00,Rainwise IP-100,2013-02-08 04:26:00,
2013-02-07 23:31:00,31.9,21.0,29.21,SE,135,12.0,24.0,59,0.00,,,0.00,Rainwise IP-100,2013-02-08 04:31:00,
2013-02-07 23:36:00,31.9,18.0,29.21,SSE,157,18.0,23.0,58,0.00,,,0.00,Rainwise IP-100,2013-02-08 04:36:00,
2013-02-07 23:41:00,31.9,21.0,29.21,SE,135,14.0,21.0,59,0.00,,,0.00,Rainwise IP-100,2013-02-08 04:41:00,
2013-02-07 23:46:00,31.9,18.0,29.21,SE,135,12.0,23.0,58,0.00,,,0.00,Rainwise IP-100,2013-02-08 04:46:00,
2013-02-07 23:51:00,31.9,21.0,29.21,SE,135,14.0,18.0,59,0.00,,,0.00,Rainwise IP-100,2013-02-08 04:51:00,
2013-02-07 23:56:00,31.9,18.0,29.20,SE,135,9.0,24.0,58,0.00,,,0.00,Rainwise IP-100,2013-02-08 04:56:00,